OMDBOENG

Guest
Details From OMDB - DUBAI INTL
To OENG - NEJRAN
Flight Number -
Tags decoded
Created
Modified
Stats Distance 764 nm / 1,415 km
Max Altitude 0 ft / 0 m
Waypoints 2
Social Downloads 0
Likes 0
Share VATSIM

Download

Looking for another format? Having issues loading an existing format? Contact us
Advertisement - Login to hide

Notes

Requested: OMDB OENG

Route

OMDB OENG

ID Type Via Altitude Latitude Longitude Leg Dist Tot Dist Heading (true) Name
O OMDB APT - 0 ft / 0 m 25.25491˚ 55.36426˚ - 0 nm - DUBAI INTL
O OENG APT - 0 ft / 0 m 17.61144˚ 44.41917˚ 764 nm 764 nm 235° / 231° NEJRAN

Altitude Profile

Advertisement - Login to hide

Weather


0- 5 10 15 20 25 30 35+ Temperature / ° C

Clouds and Precipitation
Forecast for 2017-12-18 18:00 UTC. Updated an hour ago

Ground ~20,000 ft ~40,000 ft Winds

OMDB

Details ICAO OMDB (DXB)
Name DUBAI INTL
Region United Arab Emirates
Timezone Asia/Dubai (UTC+4.0)
Stats Elevation 62 ft / 19 m (AMSL)
Location 25.254912° 55.364260°
Runways 2
Magnetic Variation 2.047° E

METAR

OMDB 181600Z 08003KT 360V140 9999 FEW030 22/13 Q1021 NOSIG

Decode

TAF

TAF OMDB 181100Z 1812/1918 35012KT 8000 FEW035 PROB30 TEMPO 1812/1815 VRB15G30KT 3000 SHRA BLDU SCT030TCU BECMG 1815/1817 08005KT BECMG 1907/1909 34010KT BECMG 1915/1917 07005KT

Decode

Departure Runways

ID Width Length Bearing (true) Bearing (mag) Surface Threshold Offset Overrun Length
12L 197 ft / 60 m 13,124 ft / 4,000 m 121.49° 119.44° Asphalt 1,312 ft / 400 m 395 ft / 120 m
12R 151 ft / 46 m 13,139 ft / 4,005 m 121.48° 119.43° Asphalt 394 ft / 120 m 197 ft / 60 m
30L 151 ft / 46 m 13,139 ft / 4,005 m 301.50° 299.45° Asphalt 2,953 ft / 900 m 197 ft / 60 m
30R 197 ft / 60 m 13,124 ft / 4,000 m 301.51° 299.46° Asphalt 0 ft / 0 m 395 ft / 120 m

OENG

Details ICAO OENG (EAM)
Name NEJRAN
Region Saudi Arabia
Timezone Asia/Riyadh (UTC+3.0)
Stats Elevation 3,982 ft / 1,214 m (AMSL)
Location 17.611436° 44.419170°
Runways 1
Magnetic Variation 2.442° E

METAR

OENG 181600Z 11006KT CAVOK 15/M05 Q1025 NOSIG

Decode

TAF

Not found

Destination Runways

ID Width Length Bearing (true) Bearing (mag) Surface Threshold Offset Overrun Length
06 147 ft / 45 m 10,026 ft / 3,056 m 59.83° 57.39° Asphalt 0 ft / 0 m 895 ft / 273 m
24 147 ft / 45 m 10,026 ft / 3,056 m 239.84° 237.40° Asphalt 0 ft / 0 m 194 ft / 59 m